createdAt,value
2018-02-08T00:09:42.410Z,42.90
2018-02-08T00:12:09.862Z,40.53
2018-02-08T00:14:37.325Z,42.50
2018-02-08T00:17:04.766Z,43.57
2018-02-08T00:19:32.242Z,40.88
2018-02-08T00:21:59.674Z,42.40
2018-02-08T00:24:27.120Z,38.07
2018-02-08T00:26:54.563Z,43.20
2018-02-08T00:29:23.170Z,42.97
2018-02-08T00:31:50.616Z,41.50
2018-02-08T00:34:18.074Z,40.83
2018-02-08T00:36:45.510Z,40.07
2018-02-08T00:39:12.999Z,44.33
2018-02-08T00:41:40.438Z,46.80
2018-02-08T00:44:07.963Z,41.87
2018-02-08T00:46:35.450Z,40.17
2018-02-08T00:49:02.978Z,40.87
2018-02-08T00:51:30.576Z,41.80
2018-02-08T00:53:58.062Z,41.05
2018-02-08T00:56:25.618Z,40.97
2018-02-08T00:58:53.174Z,42.30
2018-02-08T01:01:20.649Z,39.73
2018-02-08T01:03:48.295Z,42.27
2018-02-08T01:06:15.773Z,41.50
2018-02-08T01:08:43.204Z,40.13
2018-02-08T01:11:10.669Z,41.63
2018-02-08T01:13:38.114Z,41.73
2018-02-08T01:16:05.584Z,44.55
2018-02-08T01:18:33.126Z,39.97
2018-02-08T01:21:00.610Z,41.70
2018-02-08T01:23:28.054Z,42.77
2018-02-08T01:25:55.530Z,43.40
2018-02-08T01:28:22.970Z,40.40
2018-02-08T01:30:50.413Z,44.40
2018-02-08T01:33:17.889Z,44.83
2018-02-08T01:35:45.362Z,40.53
2018-02-08T01:38:12.868Z,41.10
2018-02-08T01:40:40.369Z,41.77
2018-02-08T01:43:07.865Z,42.70
2018-02-08T01:45:35.311Z,40.88
2018-02-08T01:48:02.789Z,41.00
2018-02-08T01:50:30.232Z,40.43
2018-02-08T01:52:57.790Z,44.05
2018-02-08T01:55:25.246Z,41.70
2018-02-08T01:57:52.773Z,47.20
2018-02-08T02:00:20.258Z,45.00
2018-02-08T02:02:47.721Z,42.77
2018-02-08T02:05:15.348Z,45.93
2018-02-08T02:07:42.878Z,45.83
2018-02-08T02:10:10.325Z,41.70
2018-02-08T02:12:37.772Z,47.00
2018-02-08T02:15:05.247Z,47.50
2018-02-08T02:17:32.774Z,42.88
2018-02-08T02:20:00.225Z,43.03
2018-02-08T02:22:27.754Z,44.67
2018-02-08T02:24:56.725Z,45.86
2018-02-08T02:27:25.393Z,41.18
2018-02-08T02:29:52.967Z,45.90
2018-02-08T02:32:20.421Z,45.90
2018-02-08T02:34:47.938Z,44.70
2018-02-08T02:37:15.378Z,43.03
2018-02-08T02:39:42.814Z,45.90
2018-02-08T02:42:10.274Z,39.83
2018-02-08T02:44:37.713Z,43.40
2018-02-08T02:47:05.183Z,45.50
2018-02-08T02:49:32.769Z,41.33
2018-02-08T02:52:00.264Z,42.80
2018-02-08T02:54:27.724Z,41.73
2018-02-08T02:56:55.299Z,40.93
2018-02-08T02:59:22.731Z,39.87
2018-02-08T03:01:50.195Z,43.57
2018-02-08T03:04:17.638Z,41.42
2018-02-08T03:06:45.094Z,38.27
2018-02-08T03:09:12.549Z,44.97
2018-02-08T03:11:40.154Z,41.93
2018-02-08T03:14:07.686Z,42.50
2018-02-08T03:16:35.151Z,42.58
2018-02-08T03:19:02.602Z,42.93
2018-02-08T03:21:30.075Z,41.07
2018-02-08T03:23:57.559Z,42.67
2018-02-08T03:26:25.018Z,41.23
2018-02-08T03:28:59.013Z,44.23
2018-02-08T03:31:27.372Z,44.07
2018-02-08T03:33:54.871Z,44.63
2018-02-08T03:36:22.329Z,42.10
2018-02-08T03:38:49.802Z,39.43
2018-02-08T03:41:17.256Z,43.90
2018-02-08T03:43:44.708Z,45.83
2018-02-08T03:46:12.180Z,40.37
2018-02-08T03:48:39.632Z,42.80
2018-02-08T03:51:07.174Z,41.20
2018-02-08T03:53:34.728Z,43.13
2018-02-08T03:56:02.185Z,45.30
2018-02-08T03:58:29.641Z,43.55
2018-02-08T04:00:57.086Z,42.55
2018-02-08T04:03:25.054Z,41.30
2018-02-08T04:05:52.522Z,45.47
2018-02-08T04:08:19.969Z,41.37
2018-02-08T04:10:47.416Z,42.07
2018-02-08T04:13:15.040Z,41.88
2018-02-08T04:15:42.482Z,47.15
2018-02-08T04:18:09.934Z,45.72
2018-02-08T04:20:37.370Z,45.73
2018-02-08T04:23:04.835Z,42.20
2018-02-08T04:25:32.274Z,45.73
2018-02-08T04:27:59.722Z,50.20
2018-02-08T04:30:27.162Z,41.70
2018-02-08T04:32:55.238Z,41.40
2018-02-08T04:35:22.728Z,44.30
2018-02-08T04:37:50.208Z,44.53
2018-02-08T04:40:29.325Z,46.60
2018-02-08T04:43:08.730Z,46.40
2018-02-08T04:45:47.785Z,41.35
2018-02-08T04:48:16.159Z,41.93
2018-02-08T04:50:43.589Z,43.03
2018-02-08T04:53:11.047Z,48.75
2018-02-08T04:55:38.484Z,45.30
2018-02-08T04:58:05.943Z,45.60
2018-02-08T05:00:33.377Z,49.77
2018-02-08T05:03:00.834Z,44.50
2018-02-08T05:05:28.301Z,45.87
2018-02-08T05:07:55.751Z,41.67
2018-02-08T05:10:23.173Z,42.23
2018-02-08T05:12:50.613Z,44.03
2018-02-08T05:15:18.081Z,44.27
2018-02-08T05:17:45.545Z,43.43
2018-02-08T05:20:12.984Z,43.67
2018-02-08T05:22:40.450Z,43.50
2018-02-08T05:25:07.956Z,46.10
2018-02-08T05:27:35.419Z,47.07
2018-02-08T05:30:02.929Z,43.53
2018-02-08T05:32:30.396Z,48.97
2018-02-08T05:34:57.833Z,48.30
2018-02-08T05:37:25.395Z,44.03
2018-02-08T05:39:52.829Z,44.67
2018-02-08T05:42:20.365Z,44.43
2018-02-08T05:44:47.788Z,46.27
2018-02-08T05:47:15.249Z,45.37
2018-02-08T05:49:42.717Z,45.97
2018-02-08T05:52:10.434Z,46.57
2018-02-08T05:54:37.897Z,47.13
2018-02-08T05:57:05.359Z,43.90
2018-02-08T05:59:32.792Z,41.33
2018-02-08T06:02:00.494Z,45.58
2018-02-08T06:04:27.937Z,49.10
2018-02-08T06:06:57.918Z,44.57
2018-02-08T06:09:25.435Z,46.45
2018-02-08T06:11:52.962Z,47.83
2018-02-08T06:14:20.417Z,44.00
2018-02-08T06:16:47.880Z,50.83
2018-02-08T06:19:15.345Z,44.55
2018-02-08T06:21:42.832Z,48.10
2018-02-08T06:24:10.287Z,44.67
2018-02-08T06:26:37.766Z,48.67
2018-02-08T06:29:05.221Z,43.07
2018-02-08T06:31:32.658Z,46.50
2018-02-08T06:34:00.118Z,48.92
2018-02-08T06:36:27.880Z,47.53
2018-02-08T06:38:55.644Z,48.73
2018-02-08T06:41:23.073Z,51.00
2018-02-08T06:43:50.870Z,54.10
2018-02-08T06:46:18.316Z,42.20
2018-02-08T06:48:45.783Z,45.73
2018-02-08T06:51:13.276Z,53.33
2018-02-08T06:53:40.714Z,47.10
2018-02-08T06:56:08.232Z,48.30
2018-02-08T06:58:35.708Z,46.80
2018-02-08T07:01:03.174Z,48.03
2018-02-08T07:03:30.622Z,50.73
2018-02-08T07:05:58.089Z,50.83
2018-02-08T07:08:25.673Z,50.70
2018-02-08T07:10:53.120Z,46.30
2018-02-08T07:13:20.578Z,46.63
2018-02-08T07:15:48.021Z,45.70
2018-02-08T07:18:15.689Z,48.13
2018-02-08T07:20:43.261Z,50.37
2018-02-08T07:23:10.705Z,50.33
2018-02-08T07:25:38.189Z,45.63
2018-02-08T07:28:05.629Z,44.80
2018-02-08T07:30:33.074Z,45.17
2018-02-08T07:33:00.529Z,50.28
2018-02-08T07:35:27.997Z,47.10
2018-02-08T07:37:57.013Z,44.04
2018-02-08T07:40:24.472Z,51.93
2018-02-08T07:42:51.917Z,49.10
2018-02-08T07:45:19.368Z,48.73
2018-02-08T07:47:47.120Z,58.93
2018-02-08T07:50:14.567Z,50.80
2018-02-08T07:52:42.064Z,44.60
2018-02-08T08:08:14.421Z,45.00
2018-02-08T08:10:41.858Z,45.80
2018-02-08T08:13:09.360Z,48.80
2018-02-08T08:15:36.808Z,46.00
2018-02-08T08:18:04.277Z,47.17
2018-02-08T08:20:31.705Z,45.77
2018-02-08T08:22:59.178Z,49.93
2018-02-08T08:25:26.605Z,44.93
2018-02-08T08:27:54.049Z,50.30
2018-02-08T08:30:21.476Z,46.10
2018-02-08T08:32:49.025Z,42.00
2018-02-08T08:35:17.100Z,44.93
2018-02-08T08:37:44.556Z,47.73
2018-02-08T08:40:12.002Z,46.28
2018-02-08T08:42:39.475Z,43.83
2018-02-08T08:45:06.926Z,48.30
2018-02-08T08:47:34.365Z,45.30
2018-02-08T08:50:01.811Z,45.97
2018-02-08T08:52:29.336Z,48.42
2018-02-08T08:54:56.771Z,47.07
2018-02-08T08:57:24.216Z,49.90
2018-02-08T08:59:51.658Z,44.77
2018-02-08T09:02:19.117Z,44.40
2018-02-08T09:04:46.569Z,46.50
2018-02-08T09:07:14.200Z,44.70
2018-02-08T09:09:41.673Z,49.63
2018-02-08T09:12:09.120Z,46.85
2018-02-08T09:14:36.625Z,44.23
2018-02-08T09:17:04.081Z,44.20
2018-02-08T09:19:31.538Z,45.07
2018-02-08T09:21:59.069Z,46.20
2018-02-08T09:24:26.547Z,48.60
2018-02-08T09:26:54.053Z,46.67
2018-02-08T09:29:21.496Z,45.63
2018-02-08T09:31:48.958Z,43.70
2018-02-08T09:34:16.408Z,48.10
2018-02-08T09:36:43.858Z,41.92
2018-02-08T09:39:11.315Z,49.73
2018-02-08T09:41:38.780Z,48.70
2018-02-08T09:44:06.258Z,48.78
2018-02-08T09:46:33.688Z,44.28
2018-02-08T09:49:01.120Z,47.57
2018-02-08T09:51:28.577Z,50.20
2018-02-08T09:53:56.554Z,52.15
2018-02-08T09:56:24.037Z,47.40
2018-02-08T09:58:51.493Z,52.90
2018-02-08T10:01:18.936Z,48.77
2018-02-08T10:03:46.374Z,50.70
2018-02-08T10:06:13.825Z,46.57
2018-02-08T10:08:41.313Z,47.40
2018-02-08T10:11:08.774Z,50.00
2018-02-08T10:13:36.240Z,52.80
2018-02-08T10:16:03.776Z,49.80
2018-02-08T10:18:31.203Z,47.83
2018-02-08T10:20:58.652Z,50.10
2018-02-08T10:23:26.507Z,50.45
2018-02-08T10:25:53.977Z,47.17
2018-02-08T10:28:21.466Z,50.50
2018-02-08T10:30:48.978Z,54.50
2018-02-08T10:33:16.478Z,49.40
2018-02-08T10:35:43.932Z,49.97
2018-02-08T10:38:11.356Z,48.83
2018-02-08T10:40:38.792Z,48.87
2018-02-08T10:43:06.260Z,43.70
2018-02-08T10:45:33.684Z,48.55
2018-02-08T10:48:01.133Z,46.40
2018-02-08T10:50:28.565Z,45.12
2018-02-08T10:52:56.651Z,47.90
2018-02-08T10:55:24.117Z,45.23
2018-02-08T10:57:51.573Z,48.87
2018-02-08T11:00:19.021Z,49.53
2018-02-08T11:02:46.489Z,46.50
2018-02-08T11:05:13.947Z,46.73
2018-02-08T11:07:41.401Z,50.73
2018-02-08T11:10:15.047Z,46.50
2018-02-08T11:12:56.513Z,46.47
2018-02-08T11:15:25.296Z,52.20
2018-02-08T11:17:52.742Z,48.17
2018-02-08T11:20:20.209Z,50.27
2018-02-08T11:22:47.661Z,48.50
2018-02-08T11:25:15.101Z,48.03
2018-02-08T11:27:42.580Z,47.77
2018-02-08T11:30:10.026Z,52.08
2018-02-08T11:32:38.124Z,52.40
2018-02-08T11:35:05.641Z,48.47
2018-02-08T11:37:33.082Z,51.57
2018-02-08T11:40:00.532Z,47.50
2018-02-08T11:42:28.014Z,49.83
2018-02-08T11:44:55.471Z,50.37
2018-02-08T11:47:22.909Z,46.50
2018-02-08T11:49:50.365Z,50.63
2018-02-08T11:52:17.812Z,48.80
2018-02-08T11:54:45.284Z,48.03
2018-02-08T11:57:12.718Z,52.30
2018-02-08T11:59:40.260Z,46.03
2018-02-08T12:02:07.701Z,44.03
2018-02-08T12:04:35.163Z,45.78
2018-02-08T12:07:02.612Z,48.40
2018-02-08T12:09:30.091Z,44.67
2018-02-08T12:11:57.605Z,48.90
2018-02-08T12:14:25.149Z,44.65
2018-02-08T12:16:52.642Z,52.10
2018-02-08T12:19:20.081Z,42.80
2018-02-08T12:21:47.541Z,45.43
2018-02-08T12:24:14.985Z,45.83
2018-02-08T12:26:42.457Z,44.70
2018-02-08T12:29:09.938Z,47.72
2018-02-08T12:31:37.457Z,46.20
2018-02-08T12:34:04.889Z,48.20
2018-02-08T12:36:32.347Z,49.57
2018-02-08T12:38:59.795Z,49.57
2018-02-08T12:41:27.257Z,44.60
2018-02-08T12:43:54.689Z,48.33
2018-02-08T12:46:22.154Z,45.43
2018-02-08T12:48:49.592Z,49.47
2018-02-08T12:51:17.057Z,45.03
2018-02-08T12:53:44.540Z,44.77
2018-02-08T12:56:12.001Z,47.62
2018-02-08T12:58:39.628Z,44.20
2018-02-08T13:01:07.200Z,50.20
2018-02-08T13:03:34.681Z,43.13
2018-02-08T13:06:02.135Z,43.83
2018-02-08T13:08:29.600Z,43.67
2018-02-08T13:10:58.146Z,48.03
2018-02-08T13:13:25.627Z,45.40
2018-02-08T13:15:53.127Z,45.05
2018-02-08T13:18:20.680Z,46.13
2018-02-08T13:20:48.180Z,43.60
2018-02-08T13:23:15.737Z,45.03
2018-02-08T13:25:43.233Z,47.25
2018-02-08T13:28:10.779Z,43.10
2018-02-08T13:30:38.268Z,45.90
2018-02-08T13:33:05.749Z,44.33
2018-02-08T13:35:33.217Z,45.90
2018-02-08T13:38:00.681Z,46.60
2018-02-08T13:40:31.226Z,45.93
2018-02-08T13:42:58.729Z,48.73
2018-02-08T13:45:35.558Z,46.47
2018-02-08T14:01:39.739Z,46.63
2018-02-08T14:04:07.259Z,48.40
2018-02-08T14:06:34.695Z,46.00
2018-02-08T14:09:02.144Z,45.57
2018-02-08T14:11:29.594Z,45.83
2018-02-08T14:13:57.055Z,46.90
2018-02-08T14:16:24.502Z,46.97
2018-02-08T14:18:51.961Z,48.63
2018-02-08T14:21:19.415Z,46.93
2018-02-08T14:23:46.852Z,47.80
2018-02-08T14:26:14.321Z,45.83
2018-02-08T14:28:41.772Z,47.42
2018-02-08T14:31:09.254Z,46.10
2018-02-08T14:33:36.725Z,46.67
2018-02-08T14:36:04.201Z,47.58
2018-02-08T14:38:31.696Z,49.87
2018-02-08T14:40:59.171Z,47.80
2018-02-08T14:43:27.500Z,47.35
2018-02-08T14:45:54.987Z,47.83
2018-02-08T14:48:22.443Z,47.70
2018-02-08T14:50:49.927Z,50.13
2018-02-08T14:53:17.422Z,47.03
2018-02-08T14:55:44.929Z,48.77
2018-02-08T14:58:12.379Z,49.53
2018-02-08T15:00:39.856Z,49.53
2018-02-08T15:03:07.298Z,48.60
2018-02-08T15:05:34.752Z,51.78
2018-02-08T15:08:02.225Z,50.92
2018-02-08T15:10:29.687Z,50.20
2018-02-08T15:12:57.820Z,52.00
2018-02-08T15:15:25.280Z,48.20
2018-02-08T15:17:52.744Z,53.83
2018-02-08T15:20:20.177Z,54.03
2018-02-08T15:22:47.661Z,53.28
2018-02-08T15:25:15.127Z,47.90
2018-02-08T15:27:42.570Z,58.33
2018-02-08T15:30:10.007Z,56.67
2018-02-08T15:32:38.347Z,51.35
2018-02-08T15:35:05.782Z,50.33
2018-02-08T15:37:33.228Z,52.27
2018-02-08T15:40:00.696Z,52.47
2018-02-08T15:42:28.136Z,53.37
2018-02-08T15:44:55.664Z,61.20
2018-02-08T15:47:23.100Z,59.30
2018-02-08T15:49:50.539Z,53.30
2018-02-08T15:52:18.005Z,51.90
2018-02-08T15:54:45.439Z,56.83
2018-02-08T15:57:12.884Z,54.07
2018-02-08T15:59:46.816Z,58.60
2018-02-08T16:02:14.253Z,52.15
2018-02-08T16:04:41.822Z,55.35
2018-02-08T16:07:09.277Z,55.47
2018-02-08T16:09:36.828Z,54.30
2018-02-08T16:12:04.268Z,57.70
2018-02-08T16:14:31.723Z,53.63
2018-02-08T16:16:59.178Z,52.70
2018-02-08T16:19:26.622Z,54.23
2018-02-08T16:21:54.053Z,57.77
2018-02-08T16:24:21.580Z,60.53
2018-02-08T16:26:49.007Z,55.38
2018-02-08T16:29:16.469Z,55.60
2018-02-08T16:31:43.897Z,56.80
2018-02-08T16:34:11.378Z,55.10
2018-02-08T16:36:38.926Z,57.47
2018-02-08T16:39:06.703Z,60.13
2018-02-08T16:41:34.148Z,60.27
2018-02-08T16:44:01.604Z,62.63
2018-02-08T16:46:29.077Z,55.77
2018-02-08T16:48:56.590Z,56.33
2018-02-08T16:51:24.249Z,53.53
2018-02-08T16:53:51.657Z,59.07
2018-02-08T16:56:19.111Z,62.07
2018-02-08T16:58:46.536Z,56.93
2018-02-08T17:01:13.997Z,56.57
2018-02-08T17:03:43.197Z,62.47
2018-02-08T17:06:10.632Z,56.83
2018-02-08T17:08:38.106Z,60.37
2018-02-08T17:11:05.544Z,60.10
2018-02-08T17:13:32.986Z,56.28
2018-02-08T17:16:00.433Z,56.33
2018-02-08T17:18:28.135Z,60.20
2018-02-08T17:20:55.576Z,65.43
2018-02-08T17:23:23.019Z,59.20
2018-02-08T17:25:50.475Z,54.90
2018-02-08T17:28:17.922Z,61.00
2018-02-08T17:30:45.369Z,61.00
2018-02-08T17:33:12.801Z,59.77
2018-02-08T17:35:40.256Z,59.38
2018-02-08T17:38:07.973Z,57.75
2018-02-08T17:40:35.433Z,62.73
2018-02-08T17:43:03.011Z,59.35
2018-02-08T17:45:30.499Z,64.87
2018-02-08T17:48:07.596Z,66.50
2018-02-08T17:50:37.280Z,65.72
2018-02-08T17:53:04.884Z,62.50
2018-02-08T17:55:32.318Z,59.45
2018-02-08T17:57:59.775Z,66.73
2018-02-08T18:00:27.205Z,64.47
2018-02-08T18:02:54.671Z,58.03
2018-02-08T18:05:22.133Z,66.13
2018-02-08T18:07:49.568Z,65.33
2018-02-08T18:10:17.008Z,62.77
2018-02-08T18:12:44.476Z,62.83
2018-02-08T18:15:11.916Z,63.40
2018-02-08T18:17:39.340Z,61.20
2018-02-08T18:20:06.808Z,66.77
2018-02-08T18:22:34.239Z,69.82
2018-02-08T18:25:02.826Z,65.20
2018-02-08T18:27:30.256Z,64.57
2018-02-08T18:29:58.712Z,60.63
2018-02-08T18:32:26.143Z,61.53
2018-02-08T18:34:53.576Z,64.53
2018-02-08T18:37:21.044Z,62.57
2018-02-08T18:39:48.479Z,64.87
2018-02-08T18:42:15.900Z,62.47
2018-02-08T18:44:43.439Z,68.70
2018-02-08T18:47:10.998Z,66.80
2018-02-08T18:49:39.543Z,62.33
2018-02-08T18:52:07.221Z,61.28
2018-02-08T18:54:34.681Z,63.00
2018-02-08T18:57:02.145Z,60.80
2018-02-08T18:59:29.612Z,64.07
2018-02-08T19:01:57.042Z,65.97
2018-02-08T19:04:24.499Z,62.00
2018-02-08T19:06:51.938Z,64.33
2018-02-08T19:09:19.391Z,63.63
2018-02-08T19:11:46.811Z,63.57
2018-02-08T19:14:14.300Z,66.13
2018-02-08T19:16:41.779Z,61.93
2018-02-08T19:19:09.226Z,55.65
2018-02-08T19:21:36.673Z,63.63
2018-02-08T19:24:04.124Z,63.40
2018-02-08T19:26:31.753Z,63.03
2018-02-08T19:28:59.172Z,60.97
2018-02-08T19:31:26.679Z,67.37
2018-02-08T19:33:54.108Z,66.07
2018-02-08T19:36:21.555Z,64.53
2018-02-08T19:38:48.986Z,62.20
2018-02-08T19:41:16.435Z,64.20
2018-02-08T19:43:43.881Z,64.50
2018-02-08T19:46:11.334Z,65.27
2018-02-08T19:48:38.818Z,64.17
2018-02-08T19:51:06.291Z,62.60
2018-02-08T19:53:34.806Z,70.53
2018-02-08T19:56:02.254Z,64.07
2018-02-08T19:58:29.770Z,66.77
2018-02-08T20:00:57.245Z,62.43
2018-02-08T20:03:24.746Z,63.92
2018-02-08T20:05:52.235Z,62.87
2018-02-08T20:08:19.696Z,65.32
2018-02-08T20:10:47.844Z,64.60
2018-02-08T20:13:15.308Z,67.00
2018-02-08T20:15:42.844Z,67.47
2018-02-08T20:18:10.776Z,67.12
2018-02-08T20:20:38.215Z,66.70
2018-02-08T20:23:06.655Z,66.43
2018-02-08T20:25:36.908Z,66.60
2018-02-08T20:28:04.358Z,64.80
2018-02-08T20:30:31.960Z,60.50
2018-02-08T20:32:59.504Z,66.30
2018-02-08T20:35:26.942Z,60.97
2018-02-08T20:37:54.376Z,67.70
2018-02-08T20:40:22.588Z,63.33
2018-02-08T20:42:55.604Z,62.97
2018-02-08T20:45:23.174Z,67.20
2018-02-08T20:47:50.704Z,65.30
2018-02-08T20:50:18.241Z,67.83
2018-02-08T20:52:46.014Z,67.10
2018-02-08T20:55:13.483Z,65.53
2018-02-08T20:57:40.972Z,67.70
2018-02-08T21:00:08.421Z,63.10
2018-02-08T21:02:36.004Z,63.35
2018-02-08T21:05:03.480Z,64.12
2018-02-08T21:07:31.021Z,60.27
2018-02-08T21:09:59.057Z,71.70
2018-02-08T21:12:26.529Z,64.60
2018-02-08T21:14:53.992Z,64.80
2018-02-08T21:17:21.441Z,61.90
2018-02-08T21:19:48.942Z,64.07
2018-02-08T21:22:16.386Z,62.67
2018-02-08T21:24:43.833Z,65.33
2018-02-08T21:27:11.266Z,64.20
2018-02-08T21:29:38.708Z,64.93
2018-02-08T21:32:06.146Z,64.43
2018-02-08T21:34:33.583Z,64.07
2018-02-08T21:37:01.104Z,55.67
2018-02-08T21:39:29.374Z,64.25
2018-02-08T21:41:56.876Z,69.23
2018-02-08T21:44:24.299Z,64.77
2018-02-08T21:46:51.748Z,68.90
2018-02-08T21:49:19.203Z,63.47
2018-02-08T21:51:46.689Z,70.43
2018-02-08T21:54:14.121Z,59.97
2018-02-08T21:56:41.662Z,65.40
2018-02-08T21:59:09.301Z,64.72
2018-02-08T22:01:36.744Z,64.23
2018-02-08T22:04:04.169Z,63.58
2018-02-08T22:06:31.621Z,65.80
2018-02-08T22:08:59.056Z,66.50
2018-02-08T22:11:26.557Z,62.57
2018-02-08T22:13:53.981Z,71.27
2018-02-08T22:16:21.414Z,63.33
2018-02-08T22:18:48.941Z,65.93
2018-02-08T22:21:16.381Z,66.45
2018-02-08T22:23:43.844Z,69.17
2018-02-08T22:26:11.281Z,71.27
2018-02-08T22:28:38.763Z,64.33
2018-02-08T22:31:06.263Z,65.66
2018-02-08T22:33:33.904Z,70.73
2018-02-08T22:36:01.362Z,72.47
2018-02-08T22:38:29.344Z,67.43
2018-02-08T22:40:57.917Z,69.13
2018-02-08T22:43:25.440Z,65.20
2018-02-08T22:45:52.921Z,68.30
2018-02-08T22:48:20.407Z,69.20
2018-02-08T22:50:47.889Z,65.90
2018-02-08T22:53:15.362Z,66.75
2018-02-08T22:55:42.811Z,67.63
2018-02-08T22:58:10.312Z,74.85
2018-02-08T23:00:37.772Z,64.00
2018-02-08T23:03:05.405Z,69.20
2018-02-08T23:05:32.849Z,67.83
2018-02-08T23:08:00.310Z,67.97
2018-02-08T23:10:27.754Z,69.07
2018-02-08T23:12:55.207Z,71.73
2018-02-08T23:15:22.929Z,75.53
2018-02-08T23:17:50.386Z,68.27
2018-02-08T23:20:17.939Z,63.80
2018-02-08T23:22:45.381Z,69.27
2018-02-08T23:25:12.973Z,65.05
2018-02-08T23:27:40.427Z,69.62
2018-02-08T23:30:08.153Z,66.60
2018-02-08T23:32:35.611Z,70.63
2018-02-08T23:35:03.076Z,63.73
2018-02-08T23:37:30.519Z,89.32
2018-02-08T23:39:58.177Z,72.90
2018-02-08T23:42:25.668Z,65.80
2018-02-08T23:44:53.938Z,65.70
2018-02-08T23:47:22.976Z,63.20
2018-02-08T23:49:50.433Z,68.80
2018-02-08T23:52:18.041Z,66.43
2018-02-08T23:54:46.929Z,68.23
2018-02-08T23:57:14.419Z,65.63
2018-02-08T23:59:42.815Z,73.33
